Decoded Metar for EIKY (KERRY in IRELAND) (IATA:KIR) | Meteo·Mobile Aviation Weather
aviador You're here:

EIKY Decoded Metar

KERRY in IRELAND
Report Time2019-07-23 07:30:00
UTC Time2019-07-23 08:01:59
Flight Rules mvfr MVFR
WindVRB at 04 kt
Visibility9999 m
Phenomena:N/A
Clouds:Broken 018 Hf
Expected CloudBase > 1,200 ft AGL from Temp-Dew spread
Ceiling1,800 ft
Temp19°C (ISA +4)
Dew Point16°C (83% RH)
QNH1012 hPa
Density Alt883 ft
Elevation111 ft
Report Wrong Elevation
Raw Report
METAR EIKY 230730Z VRB04KT 9999 BKN018 19/16 Q1012=

Extra information for EIKY:More info

Metar Taf Metar & Taf Last 4 Metars F.Rules Stats Wind Profile Meteogram Temp Stats Airport Information Weather charts Add Link Nearby VenuesMetar ALERT Operation Metar Decoded Social comments